AOJ74J LESU-LSZR
Flight info
| Callsign | AOJ74J |
|---|---|
| Flight time | 1h 26m |
| Altitude | 39000 |
| Route | REBUL M601 BCN M985 LUMAS DCT UNANA DCT STP DCT RAPED DCT PIGOS DCT EKSID DCT NOSTA DCT NOPMU DCT ASTIG DCT ABESI N851 ROLSA |
| Aircraft | C750/M-SBDE3FGHRWXY/S |
Departure
| Time | 2026-05-07 11:56 |
|---|---|
| Airport | Pirineus - la Seu d'Urgel Airport (LESU) |
Arrival
| Time | 2026-05-07 13:23 |
|---|---|
| Airport | Sankt Gallen Altenrhein Airport (LSZR) |
| Time | Latitude | Longitude | Altitude | Speed | Heading |
|---|---|---|---|---|---|
| 2026-05-07 11:44 | 42.33733 | 1.40518 | 2634 ft | 0 kts | 262° |
| 2026-05-07 11:51 | 42.33732 | 1.40506 | 2634 ft | 2 kts | 263° |
| 2026-05-07 11:51 | 42.33737 | 1.40487 | 2634 ft | 1 kts | 334° |
| 2026-05-07 11:51 | 42.33753 | 1.40502 | 2634 ft | 5 kts | 66° |
| 2026-05-07 11:51 | 42.33745 | 1.40549 | 2634 ft | 6 kts | 116° |
| 2026-05-07 11:52 | 42.33732 | 1.40586 | 2635 ft | 4 kts | 112° |
| 2026-05-07 11:52 | 42.33703 | 1.40607 | 2636 ft | 7 kts | 199° |
| 2026-05-07 11:52 | 42.33639 | 1.40581 | 2636 ft | 8 kts | 167° |
| 2026-05-07 11:52 | 42.33612 | 1.40648 | 2635 ft | 9 kts | 66° |
| 2026-05-07 11:53 | 42.33690 | 1.40727 | 2635 ft | 22 kts | 31° |
| 2026-05-07 11:53 | 42.33840 | 1.40849 | 2634 ft | 25 kts | 31° |
| 2026-05-07 11:53 | 42.33990 | 1.40972 | 2634 ft | 28 kts | 31° |
| 2026-05-07 11:53 | 42.34165 | 1.41113 | 2635 ft | 29 kts | 31° |
| 2026-05-07 11:54 | 42.34330 | 1.41247 | 2635 ft | 27 kts | 31° |
| 2026-05-07 11:54 | 42.34475 | 1.41386 | 2634 ft | 25 kts | 50° |
| 2026-05-07 11:54 | 42.34545 | 1.41525 | 2634 ft | 11 kts | 45° |
| 2026-05-07 11:54 | 42.34593 | 1.41513 | 2634 ft | 7 kts | 297° |
| 2026-05-07 11:55 | 42.34597 | 1.41468 | 2635 ft | 2 kts | 250° |
| 2026-05-07 11:55 | 42.34588 | 1.41458 | 2635 ft | 0 kts | 212° |
| 2026-05-07 11:55 | 42.34481 | 1.41369 | 2635 ft | 65 kts | 211° |
| 2026-05-07 11:55 | 42.33798 | 1.40814 | 2639 ft | 149 kts | 211° |
| 2026-05-07 11:56 | 42.32900 | 1.40063 | 3142 ft | 151 kts | 212° |
| 2026-05-07 11:56 | 42.32357 | 1.39456 | 3417 ft | 158 kts | 221° |
| 2026-05-07 11:56 | 42.31498 | 1.38368 | 3627 ft | 175 kts | 222° |
| 2026-05-07 11:56 | 42.30583 | 1.37271 | 4294 ft | 176 kts | 221° |
| 2026-05-07 11:57 | 42.29588 | 1.36201 | 4819 ft | 195 kts | 211° |
| 2026-05-07 11:57 | 42.28177 | 1.35729 | 5056 ft | 223 kts | 187° |
| 2026-05-07 11:57 | 42.26653 | 1.35468 | 5931 ft | 215 kts | 189° |
| 2026-05-07 11:57 | 42.25166 | 1.35163 | 6650 ft | 220 kts | 189° |
| 2026-05-07 11:58 | 42.23621 | 1.34843 | 7276 ft | 227 kts | 189° |
| 2026-05-07 11:58 | 42.22064 | 1.34531 | 8115 ft | 227 kts | 189° |
| 2026-05-07 11:58 | 42.20478 | 1.34214 | 8842 ft | 233 kts | 189° |
| 2026-05-07 11:58 | 42.18857 | 1.33889 | 9542 ft | 238 kts | 189° |
| 2026-05-07 11:59 | 42.17208 | 1.33558 | 10169 ft | 241 kts | 189° |
| 2026-05-07 11:59 | 42.15546 | 1.33225 | 10817 ft | 241 kts | 190° |
| 2026-05-07 11:59 | 42.13878 | 1.32891 | 11434 ft | 243 kts | 189° |
| 2026-05-07 11:59 | 42.12206 | 1.32556 | 12095 ft | 242 kts | 190° |
| 2026-05-07 12:00 | 42.10535 | 1.32209 | 12722 ft | 244 kts | 191° |
| 2026-05-07 12:00 | 42.08921 | 1.31476 | 13247 ft | 246 kts | 202° |
| 2026-05-07 12:00 | 42.07331 | 1.30617 | 13885 ft | 246 kts | 202° |
| 2026-05-07 12:00 | 42.05745 | 1.29794 | 14364 ft | 250 kts | 201° |
| 2026-05-07 12:01 | 42.04116 | 1.28965 | 14899 ft | 251 kts | 201° |
| 2026-05-07 12:01 | 42.02486 | 1.28125 | 15465 ft | 251 kts | 202° |
| 2026-05-07 12:01 | 42.00848 | 1.27277 | 15985 ft | 253 kts | 202° |
| 2026-05-07 12:01 | 41.99199 | 1.26427 | 16539 ft | 254 kts | 202° |
| 2026-05-07 12:02 | 41.97539 | 1.25573 | 17070 ft | 257 kts | 201° |
| 2026-05-07 12:02 | 41.95863 | 1.24710 | 17635 ft | 259 kts | 201° |
| 2026-05-07 12:02 | 41.94179 | 1.23843 | 18230 ft | 260 kts | 201° |
| 2026-05-07 12:02 | 41.92483 | 1.22971 | 18746 ft | 261 kts | 202° |
| 2026-05-07 12:03 | 41.90781 | 1.22096 | 19258 ft | 263 kts | 202° |
| 2026-05-07 12:03 | 41.89068 | 1.21216 | 19785 ft | 264 kts | 202° |
| 2026-05-07 12:03 | 41.87345 | 1.20332 | 20296 ft | 266 kts | 202° |
| 2026-05-07 12:03 | 41.85611 | 1.19441 | 20809 ft | 268 kts | 202° |
| 2026-05-07 12:04 | 41.83867 | 1.18547 | 21310 ft | 269 kts | 202° |
| 2026-05-07 12:04 | 41.82110 | 1.17647 | 21816 ft | 271 kts | 202° |
| 2026-05-07 12:04 | 41.80345 | 1.16743 | 22308 ft | 273 kts | 202° |
| 2026-05-07 12:04 | 41.78567 | 1.15832 | 22795 ft | 274 kts | 202° |
| 2026-05-07 12:05 | 41.76776 | 1.14916 | 23272 ft | 276 kts | 203° |
| 2026-05-07 12:05 | 41.74915 | 1.13962 | 23399 ft | 300 kts | 202° |
| 2026-05-07 12:05 | 41.72787 | 1.13374 | 23347 ft | 330 kts | 182° |
| 2026-05-07 12:05 | 41.70437 | 1.13958 | 23320 ft | 362 kts | 161° |
| 2026-05-07 12:06 | 41.68275 | 1.15910 | 23287 ft | 394 kts | 138° |
| 2026-05-07 12:06 | 41.66664 | 1.19013 | 23336 ft | 418 kts | 123° |
| 2026-05-07 12:06 | 41.65353 | 1.22498 | 23686 ft | 429 kts | 118° |
| 2026-05-07 12:06 | 41.64113 | 1.26133 | 24225 ft | 431 kts | 118° |
| 2026-05-07 12:07 | 41.62748 | 1.29721 | 24692 ft | 434 kts | 122° |
| 2026-05-07 12:07 | 41.61275 | 1.33254 | 25182 ft | 437 kts | 123° |
| 2026-05-07 12:07 | 41.59839 | 1.36860 | 25684 ft | 442 kts | 121° |
| 2026-05-07 12:07 | 41.58458 | 1.40545 | 26186 ft | 445 kts | 121° |
| 2026-05-07 12:08 | 41.57043 | 1.44240 | 26683 ft | 448 kts | 122° |
| 2026-05-07 12:08 | 41.55571 | 1.47927 | 27188 ft | 452 kts | 123° |
| 2026-05-07 12:08 | 41.54093 | 1.51646 | 27653 ft | 456 kts | 123° |
| 2026-05-07 12:08 | 41.52626 | 1.55424 | 28098 ft | 461 kts | 123° |
| 2026-05-07 12:09 | 41.51145 | 1.59236 | 28570 ft | 465 kts | 123° |
| 2026-05-07 12:09 | 41.49636 | 1.63061 | 29097 ft | 467 kts | 124° |
| 2026-05-07 12:09 | 41.48110 | 1.66909 | 29583 ft | 471 kts | 124° |
| 2026-05-07 12:09 | 41.46581 | 1.70792 | 30075 ft | 475 kts | 124° |
| 2026-05-07 12:10 | 41.45046 | 1.74703 | 30497 ft | 478 kts | 124° |
| 2026-05-07 12:10 | 41.43494 | 1.78635 | 30926 ft | 480 kts | 124° |
| 2026-05-07 12:10 | 41.41937 | 1.82563 | 31529 ft | 478 kts | 124° |
| 2026-05-07 12:10 | 41.40387 | 1.86478 | 32157 ft | 477 kts | 124° |
| 2026-05-07 12:11 | 41.38845 | 1.90371 | 32808 ft | 475 kts | 125° |
| 2026-05-07 12:11 | 41.37301 | 1.94259 | 33404 ft | 474 kts | 126° |
| 2026-05-07 12:11 | 41.35755 | 1.98138 | 33993 ft | 474 kts | 126° |
| 2026-05-07 12:11 | 41.34270 | 2.02055 | 34522 ft | 478 kts | 121° |
| 2026-05-07 12:12 | 41.33151 | 2.06252 | 35035 ft | 485 kts | 112° |
| 2026-05-07 12:12 | 41.32454 | 2.10672 | 35563 ft | 492 kts | 104° |
| 2026-05-07 12:12 | 41.32212 | 2.15229 | 36123 ft | 497 kts | 95° |
| 2026-05-07 12:12 | 41.32440 | 2.19776 | 36693 ft | 501 kts | 86° |
| 2026-05-07 12:13 | 41.33138 | 2.24390 | 37331 ft | 502 kts | 80° |
| 2026-05-07 12:13 | 41.33936 | 2.28829 | 37974 ft | 499 kts | 80° |
| 2026-05-07 12:13 | 41.34723 | 2.33326 | 38508 ft | 499 kts | 80° |
| 2026-05-07 12:13 | 41.35506 | 2.37810 | 38941 ft | 497 kts | 80° |
| 2026-05-07 12:14 | 41.36304 | 2.42334 | 38998 ft | 507 kts | 79° |
| 2026-05-07 12:14 | 41.37119 | 2.46953 | 39000 ft | 518 kts | 79° |
| 2026-05-07 12:14 | 41.37945 | 2.51671 | 39003 ft | 528 kts | 79° |
| 2026-05-07 12:15 | 41.39633 | 2.61368 | 39012 ft | 547 kts | 79° |
| 2026-05-07 12:15 | 41.41372 | 2.71362 | 38995 ft | 559 kts | 79° |
| 2026-05-07 12:16 | 41.43113 | 2.81468 | 39004 ft | 560 kts | 79° |
| 2026-05-07 12:16 | 41.44849 | 2.91593 | 39010 ft | 561 kts | 79° |
| 2026-05-07 12:17 | 41.46578 | 3.01728 | 39009 ft | 561 kts | 79° |
| 2026-05-07 12:17 | 41.48300 | 3.11891 | 38997 ft | 563 kts | 79° |
| 2026-05-07 12:18 | 41.50019 | 3.22081 | 39001 ft | 563 kts | 80° |
| 2026-05-07 12:18 | 41.51724 | 3.32269 | 39013 ft | 563 kts | 79° |
| 2026-05-07 12:19 | 41.53422 | 3.42454 | 39018 ft | 562 kts | 80° |
| 2026-05-07 12:19 | 41.55108 | 3.52645 | 39022 ft | 562 kts | 80° |
| 2026-05-07 12:20 | 41.56783 | 3.62838 | 39022 ft | 562 kts | 80° |
| 2026-05-07 12:20 | 41.58440 | 3.72973 | 39019 ft | 562 kts | 80° |
| 2026-05-07 12:21 | 41.60097 | 3.83177 | 39007 ft | 563 kts | 80° |
| 2026-05-07 12:21 | 41.61755 | 3.93426 | 39008 ft | 564 kts | 80° |
| 2026-05-07 12:22 | 41.63404 | 4.03666 | 39008 ft | 564 kts | 80° |
| 2026-05-07 12:22 | 41.65043 | 4.13918 | 39005 ft | 564 kts | 80° |
| 2026-05-07 12:23 | 41.66675 | 4.24174 | 39007 ft | 566 kts | 80° |
| 2026-05-07 12:23 | 41.68301 | 4.34468 | 39010 ft | 565 kts | 80° |
| 2026-05-07 12:24 | 41.69917 | 4.44758 | 39019 ft | 565 kts | 80° |
| 2026-05-07 12:24 | 41.71523 | 4.55045 | 39019 ft | 565 kts | 80° |
| 2026-05-07 12:25 | 41.73863 | 4.65102 | 39000 ft | 570 kts | 66° |
| 2026-05-07 12:25 | 41.78117 | 4.74026 | 39005 ft | 570 kts | 49° |
| 2026-05-07 12:26 | 41.83839 | 4.81328 | 39016 ft | 568 kts | 38° |
| 2026-05-07 12:26 | 41.89883 | 4.88156 | 39014 ft | 568 kts | 41° |
| 2026-05-07 12:27 | 41.95358 | 4.95799 | 38994 ft | 568 kts | 46° |
| 2026-05-07 12:27 | 42.00958 | 5.03306 | 39008 ft | 568 kts | 41° |
| 2026-05-07 12:28 | 42.06617 | 5.10737 | 39007 ft | 569 kts | 45° |
| 2026-05-07 12:28 | 42.12137 | 5.18262 | 39015 ft | 567 kts | 42° |
| 2026-05-07 12:29 | 42.17780 | 5.25697 | 39012 ft | 568 kts | 44° |
| 2026-05-07 12:29 | 42.23329 | 5.33275 | 39000 ft | 568 kts | 43° |
| 2026-05-07 12:30 | 42.28958 | 5.40772 | 39022 ft | 568 kts | 43° |
| 2026-05-07 12:30 | 42.34512 | 5.48355 | 39017 ft | 568 kts | 43° |
| 2026-05-07 12:31 | 42.40107 | 5.55888 | 39017 ft | 567 kts | 43° |
| 2026-05-07 12:31 | 42.45666 | 5.63481 | 39017 ft | 568 kts | 44° |
| 2026-05-07 12:32 | 42.51231 | 5.71042 | 39009 ft | 565 kts | 43° |
| 2026-05-07 12:32 | 42.56769 | 5.78625 | 38999 ft | 566 kts | 44° |
| 2026-05-07 12:33 | 42.65085 | 5.90021 | 38994 ft | 566 kts | 44° |
| 2026-05-07 12:33 | 42.70620 | 5.97640 | 38992 ft | 566 kts | 44° |
| 2026-05-07 12:34 | 42.76152 | 6.05269 | 38992 ft | 566 kts | 44° |
| 2026-05-07 12:34 | 42.81678 | 6.12915 | 38988 ft | 567 kts | 44° |
| 2026-05-07 12:35 | 42.87299 | 6.20325 | 38991 ft | 563 kts | 38° |
| 2026-05-07 12:35 | 42.93342 | 6.27109 | 38996 ft | 563 kts | 37° |
| 2026-05-07 12:36 | 42.99310 | 6.34042 | 38997 ft | 563 kts | 38° |
| 2026-05-07 12:36 | 43.05320 | 6.40921 | 39006 ft | 563 kts | 37° |
| 2026-05-07 12:37 | 43.11286 | 6.47826 | 38983 ft | 562 kts | 38° |
| 2026-05-07 12:37 | 43.17259 | 6.54736 | 38971 ft | 562 kts | 37° |
| 2026-05-07 12:38 | 43.22989 | 6.62024 | 38963 ft | 565 kts | 47° |
| 2026-05-07 12:38 | 43.27596 | 6.70753 | 38980 ft | 565 kts | 56° |
| 2026-05-07 12:39 | 43.32135 | 6.79557 | 38990 ft | 565 kts | 51° |
| 2026-05-07 12:39 | 43.36814 | 6.88229 | 38980 ft | 566 kts | 54° |
| 2026-05-07 12:40 | 43.41349 | 6.97078 | 38982 ft | 566 kts | 52° |
| 2026-05-07 12:40 | 43.45960 | 7.05719 | 38996 ft | 564 kts | 53° |
| 2026-05-07 12:41 | 43.50487 | 7.14536 | 38994 ft | 564 kts | 53° |
| 2026-05-07 12:41 | 43.55088 | 7.23283 | 38991 ft | 564 kts | 53° |
| 2026-05-07 12:42 | 43.59625 | 7.32107 | 38996 ft | 564 kts | 53° |
| 2026-05-07 12:42 | 43.64187 | 7.40883 | 38996 ft | 562 kts | 53° |
| 2026-05-07 12:43 | 43.68711 | 7.49694 | 38992 ft | 563 kts | 53° |
| 2026-05-07 12:43 | 43.73249 | 7.58506 | 38984 ft | 563 kts | 53° |
| 2026-05-07 12:44 | 43.78417 | 7.66557 | 38974 ft | 559 kts | 38° |
| 2026-05-07 12:44 | 43.84878 | 7.72309 | 38964 ft | 550 kts | 21° |
| 2026-05-07 12:45 | 43.92075 | 7.75596 | 38986 ft | 544 kts | 10° |
| 2026-05-07 12:45 | 43.99340 | 7.78247 | 38990 ft | 544 kts | 13° |
| 2026-05-07 12:46 | 44.06277 | 7.82188 | 39585 ft | 527 kts | 21° |
| 2026-05-07 12:46 | 44.09567 | 7.84349 | 39979 ft | 524 kts | 21° |
| 2026-05-07 12:46 | 44.12963 | 7.86288 | 39989 ft | 531 kts | 17° |
| 2026-05-07 12:47 | 44.19974 | 7.89916 | 39991 ft | 542 kts | 19° |
| 2026-05-07 12:47 | 44.26928 | 7.94050 | 39989 ft | 543 kts | 18° |
| 2026-05-07 12:48 | 44.33972 | 7.97869 | 39987 ft | 543 kts | 18° |
| 2026-05-07 12:48 | 44.40975 | 8.01926 | 39981 ft | 545 kts | 19° |
| 2026-05-07 12:49 | 44.48038 | 8.05869 | 39976 ft | 546 kts | 18° |
| 2026-05-07 12:49 | 44.55074 | 8.09899 | 39977 ft | 546 kts | 19° |
| 2026-05-07 12:50 | 44.62121 | 8.13898 | 39975 ft | 547 kts | 18° |
| 2026-05-07 12:50 | 44.67983 | 8.17244 | 39976 ft | 547 kts | 19° |
| 2026-05-07 12:51 | 44.75016 | 8.21280 | 39975 ft | 545 kts | 18° |
| 2026-05-07 12:51 | 44.83187 | 8.25963 | 39977 ft | 546 kts | 19° |
| 2026-05-07 12:52 | 44.89080 | 8.29360 | 39996 ft | 546 kts | 19° |
| 2026-05-07 12:52 | 44.96103 | 8.33406 | 39977 ft | 545 kts | 19° |
| 2026-05-07 12:53 | 45.03075 | 8.37443 | 39972 ft | 545 kts | 19° |
| 2026-05-07 12:53 | 45.10094 | 8.41512 | 39973 ft | 545 kts | 19° |
| 2026-05-07 12:54 | 45.17110 | 8.45593 | 39985 ft | 545 kts | 19° |
| 2026-05-07 12:54 | 45.24124 | 8.49682 | 39994 ft | 545 kts | 19° |
| 2026-05-07 12:55 | 45.31139 | 8.53784 | 39993 ft | 546 kts | 19° |
| 2026-05-07 12:55 | 45.38160 | 8.57900 | 39993 ft | 546 kts | 19° |
| 2026-05-07 12:56 | 45.45183 | 8.62028 | 39993 ft | 546 kts | 19° |
| 2026-05-07 12:56 | 45.52193 | 8.66160 | 39979 ft | 545 kts | 19° |
| 2026-05-07 12:57 | 45.59200 | 8.70301 | 39999 ft | 545 kts | 19° |
| 2026-05-07 12:57 | 45.66207 | 8.74453 | 39999 ft | 545 kts | 19° |
| 2026-05-07 12:58 | 45.73217 | 8.78619 | 39985 ft | 545 kts | 19° |
| 2026-05-07 12:58 | 45.80173 | 8.82764 | 39992 ft | 546 kts | 19° |
| 2026-05-07 12:59 | 45.87178 | 8.86950 | 39994 ft | 545 kts | 19° |
| 2026-05-07 12:59 | 45.94181 | 8.91144 | 39998 ft | 545 kts | 19° |
| 2026-05-07 13:00 | 46.01180 | 8.95349 | 39995 ft | 545 kts | 20° |
| 2026-05-07 13:00 | 46.08174 | 8.99564 | 40000 ft | 545 kts | 20° |
| 2026-05-07 13:01 | 46.15293 | 9.03129 | 39979 ft | 539 kts | 9° |
| 2026-05-07 13:01 | 46.22690 | 9.03845 | 39989 ft | 530 kts | 353° |
| 2026-05-07 13:02 | 46.29974 | 9.02491 | 39991 ft | 527 kts | 347° |
| 2026-05-07 13:02 | 46.37287 | 9.01307 | 39985 ft | 531 kts | 353° |
| 2026-05-07 13:03 | 46.44649 | 9.00533 | 39984 ft | 529 kts | 350° |
| 2026-05-07 13:03 | 46.51977 | 8.99378 | 39980 ft | 530 kts | 352° |
| 2026-05-07 13:04 | 46.55599 | 8.98983 | 39670 ft | 513 kts | 352° |
| 2026-05-07 13:04 | 46.59096 | 8.98560 | 39153 ft | 495 kts | 351° |
| 2026-05-07 13:04 | 46.62465 | 8.98058 | 38675 ft | 479 kts | 350° |
| 2026-05-07 13:04 | 46.65731 | 8.97574 | 38041 ft | 466 kts | 350° |
| 2026-05-07 13:05 | 46.68931 | 8.97159 | 37456 ft | 460 kts | 351° |
| 2026-05-07 13:05 | 46.72088 | 8.96754 | 36821 ft | 464 kts | 351° |
| 2026-05-07 13:05 | 46.75307 | 8.96311 | 36054 ft | 464 kts | 351° |
| 2026-05-07 13:05 | 46.78515 | 8.95860 | 35308 ft | 462 kts | 351° |
| 2026-05-07 13:06 | 46.81710 | 8.95425 | 34587 ft | 460 kts | 351° |
| 2026-05-07 13:06 | 46.84887 | 8.95003 | 33855 ft | 457 kts | 351° |
| 2026-05-07 13:06 | 46.88048 | 8.94574 | 33032 ft | 457 kts | 351° |
| 2026-05-07 13:06 | 46.91215 | 8.94130 | 32216 ft | 457 kts | 352° |
| 2026-05-07 13:07 | 46.94384 | 8.93692 | 31430 ft | 457 kts | 352° |
| 2026-05-07 13:07 | 46.97546 | 8.93263 | 30669 ft | 453 kts | 353° |
| 2026-05-07 13:07 | 47.00620 | 8.92847 | 29880 ft | 435 kts | 353° |
| 2026-05-07 13:07 | 47.03581 | 8.92439 | 28976 ft | 420 kts | 352° |
| 2026-05-07 13:08 | 47.06423 | 8.92042 | 28617 ft | 397 kts | 353° |
| 2026-05-07 13:08 | 47.09065 | 8.91680 | 28617 ft | 367 kts | 353° |
| 2026-05-07 13:08 | 47.11553 | 8.91337 | 28623 ft | 356 kts | 352° |
| 2026-05-07 13:08 | 47.14036 | 8.90987 | 28629 ft | 358 kts | 353° |
| 2026-05-07 13:09 | 47.16538 | 8.90630 | 28255 ft | 371 kts | 352° |
| 2026-05-07 13:09 | 47.19165 | 8.90249 | 27619 ft | 376 kts | 352° |
| 2026-05-07 13:09 | 47.21734 | 8.89889 | 26982 ft | 366 kts | 352° |
| 2026-05-07 13:09 | 47.24254 | 8.89542 | 26355 ft | 361 kts | 352° |
| 2026-05-07 13:10 | 47.26747 | 8.89204 | 25751 ft | 359 kts | 352° |
| 2026-05-07 13:10 | 47.29221 | 8.88866 | 25153 ft | 356 kts | 352° |
| 2026-05-07 13:10 | 47.31681 | 8.88537 | 24570 ft | 354 kts | 352° |
| 2026-05-07 13:10 | 47.34130 | 8.88219 | 23991 ft | 351 kts | 352° |
| 2026-05-07 13:11 | 47.36555 | 8.87916 | 23390 ft | 349 kts | 352° |
| 2026-05-07 13:11 | 47.38928 | 8.87371 | 22643 ft | 342 kts | 339° |
| 2026-05-07 13:11 | 47.40881 | 8.85507 | 21863 ft | 332 kts | 311° |
| 2026-05-07 13:11 | 47.41960 | 8.82631 | 21147 ft | 325 kts | 284° |
| 2026-05-07 13:12 | 47.41966 | 8.79352 | 20465 ft | 322 kts | 256° |
| 2026-05-07 13:12 | 47.40889 | 8.76498 | 19820 ft | 323 kts | 229° |
| 2026-05-07 13:12 | 47.39080 | 8.74544 | 19257 ft | 322 kts | 212° |
| 2026-05-07 13:12 | 47.37101 | 8.73008 | 18754 ft | 321 kts | 208° |
| 2026-05-07 13:13 | 47.35097 | 8.71563 | 18224 ft | 320 kts | 207° |
| 2026-05-07 13:13 | 47.33060 | 8.70258 | 17474 ft | 320 kts | 198° |
| 2026-05-07 13:13 | 47.30845 | 8.70068 | 16767 ft | 318 kts | 178° |
| 2026-05-07 13:13 | 47.28755 | 8.70934 | 16439 ft | 314 kts | 156° |
| 2026-05-07 13:14 | 47.27009 | 8.72882 | 16141 ft | 321 kts | 134° |
| 2026-05-07 13:14 | 47.25852 | 8.75688 | 15886 ft | 323 kts | 112° |
| 2026-05-07 13:14 | 47.25463 | 8.78963 | 15431 ft | 330 kts | 89° |
| 2026-05-07 13:14 | 47.25959 | 8.82290 | 14967 ft | 349 kts | 67° |
| 2026-05-07 13:15 | 47.27300 | 8.85467 | 14601 ft | 376 kts | 54° |
| 2026-05-07 13:15 | 47.28858 | 8.88549 | 14318 ft | 376 kts | 52° |
| 2026-05-07 13:15 | 47.30436 | 8.91633 | 13997 ft | 377 kts | 53° |
| 2026-05-07 13:15 | 47.31968 | 8.94765 | 13646 ft | 377 kts | 54° |
| 2026-05-07 13:16 | 47.33484 | 8.97903 | 13258 ft | 375 kts | 53° |
| 2026-05-07 13:16 | 47.35017 | 9.01012 | 12854 ft | 373 kts | 53° |
| 2026-05-07 13:16 | 47.36547 | 9.04096 | 12077 ft | 368 kts | 53° |
| 2026-05-07 13:16 | 47.38012 | 9.07087 | 11311 ft | 353 kts | 53° |
| 2026-05-07 13:17 | 47.39416 | 9.09969 | 10552 ft | 340 kts | 53° |
| 2026-05-07 13:17 | 47.40782 | 9.12758 | 9789 ft | 330 kts | 53° |
| 2026-05-07 13:17 | 47.42096 | 9.15432 | 9005 ft | 322 kts | 53° |
| 2026-05-07 13:17 | 47.43392 | 9.18086 | 8227 ft | 315 kts | 53° |
| 2026-05-07 13:18 | 47.44642 | 9.20639 | 7936 ft | 298 kts | 53° |
| 2026-05-07 13:18 | 47.45852 | 9.23091 | 7593 ft | 294 kts | 52° |
| 2026-05-07 13:18 | 47.47048 | 9.25519 | 7167 ft | 291 kts | 52° |
| 2026-05-07 13:18 | 47.48226 | 9.27922 | 6724 ft | 287 kts | 52° |
| 2026-05-07 13:19 | 47.49388 | 9.30293 | 6269 ft | 283 kts | 52° |
| 2026-05-07 13:19 | 47.50467 | 9.32753 | 5395 ft | 288 kts | 64° |
| 2026-05-07 13:19 | 47.50793 | 9.35535 | 4407 ft | 259 kts | 94° |
| 2026-05-07 13:19 | 47.50697 | 9.38091 | 3999 ft | 243 kts | 92° |
| 2026-05-07 13:20 | 47.50498 | 9.40467 | 3981 ft | 228 kts | 102° |
| 2026-05-07 13:20 | 47.50185 | 9.42760 | 3582 ft | 228 kts | 102° |
| 2026-05-07 13:20 | 47.49917 | 9.44852 | 3178 ft | 179 kts | 101° |
| 2026-05-07 13:20 | 47.49713 | 9.46472 | 2832 ft | 147 kts | 101° |
| 2026-05-07 13:21 | 47.49533 | 9.47901 | 2464 ft | 136 kts | 101° |
| 2026-05-07 13:21 | 47.49363 | 9.49249 | 2283 ft | 134 kts | 99° |
| 2026-05-07 13:21 | 47.49191 | 9.50620 | 2161 ft | 137 kts | 99° |
| 2026-05-07 13:21 | 47.49013 | 9.51986 | 1896 ft | 132 kts | 99° |
| 2026-05-07 13:22 | 47.48795 | 9.53298 | 1676 ft | 132 kts | 99° |
| 2026-05-07 13:22 | 47.48654 | 9.54594 | 1423 ft | 128 kts | 95° |
| 2026-05-07 13:22 | 47.48533 | 9.55849 | 1317 ft | 109 kts | 99° |
| 2026-05-07 13:22 | 47.48447 | 9.56634 | 1307 ft | 51 kts | 99° |
| 2026-05-07 13:23 | 47.48415 | 9.56955 | 1310 ft | 15 kts | 99° |
| 2026-05-07 13:23 | 47.48413 | 9.57038 | 1313 ft | 3 kts | 149° |
| 2026-05-07 13:23 | 47.48409 | 9.57002 | 1312 ft | 10 kts | 276° |
| 2026-05-07 13:23 | 47.48425 | 9.56849 | 1308 ft | 18 kts | 278° |
| 2026-05-07 13:24 | 47.48443 | 9.56665 | 1307 ft | 19 kts | 279° |
| 2026-05-07 13:24 | 47.48469 | 9.56423 | 1308 ft | 25 kts | 279° |
| 2026-05-07 13:24 | 47.48494 | 9.56184 | 1309 ft | 23 kts | 278° |
| 2026-05-07 13:24 | 47.48518 | 9.55936 | 1315 ft | 26 kts | 278° |
| 2026-05-07 13:25 | 47.48547 | 9.55654 | 1314 ft | 29 kts | 279° |
| 2026-05-07 13:25 | 47.48574 | 9.55399 | 1315 ft | 14 kts | 280° |
| 2026-05-07 13:25 | 47.48600 | 9.55327 | 1314 ft | 8 kts | 338° |
| 2026-05-07 13:25 | 47.48653 | 9.55302 | 1311 ft | 9 kts | 297° |
| 2026-05-07 13:26 | 47.48683 | 9.55248 | 1311 ft | 6 kts | 358° |
| 2026-05-07 13:26 | 47.48716 | 9.55253 | 1311 ft | 4 kts | 6° |
| 2026-05-07 13:26 | 47.48721 | 9.55254 | 1310 ft | 0 kts | 6° |